createdAt,value
2023-04-04T00:00:41.681Z,43.00
2023-04-04T00:03:15.029Z,43.10
2023-04-04T00:05:48.952Z,43.20
2023-04-04T00:08:22.095Z,43.20
2023-04-04T00:11:00.595Z,43.30
2023-04-04T00:13:34.235Z,43.10
2023-04-04T00:16:08.044Z,43.10
2023-04-04T00:18:41.471Z,43.20
2023-04-04T00:21:14.761Z,43.20
2023-04-04T00:23:48.180Z,43.10
2023-04-04T00:26:22.987Z,43.20
2023-04-04T00:28:56.413Z,43.20
2023-04-04T00:31:29.733Z,43.20
2023-04-04T00:34:03.071Z,43.20
2023-04-04T00:36:36.587Z,43.20
2023-04-04T00:39:09.925Z,43.20
2023-04-04T00:41:44.826Z,43.20
2023-04-04T00:44:18.394Z,43.10
2023-04-04T00:46:52.953Z,43.10
2023-04-04T00:49:26.320Z,43.00
2023-04-04T00:51:59.774Z,43.00
2023-04-04T00:54:33.180Z,43.00
2023-04-04T00:57:09.911Z,43.00
2023-04-04T00:59:43.639Z,43.00
2023-04-04T01:02:16.840Z,43.00
2023-04-04T01:04:50.161Z,43.20
2023-04-04T01:07:23.543Z,43.00
2023-04-04T01:09:58.577Z,43.00
2023-04-04T01:12:33.284Z,43.00
2023-04-04T01:15:07.325Z,42.90
2023-04-04T01:17:41.992Z,42.90
2023-04-04T01:20:20.657Z,43.00
2023-04-04T01:22:59.526Z,43.00
2023-04-04T01:25:34.718Z,42.90
2023-04-04T01:28:15.311Z,42.90
2023-04-04T01:30:49.024Z,42.90
2023-04-04T01:33:29.375Z,42.80
2023-04-04T01:36:12.363Z,42.80
2023-04-04T01:38:55.648Z,42.70
2023-04-04T01:41:35.436Z,42.80
2023-04-04T01:44:11.086Z,42.80
2023-04-04T01:46:45.185Z,42.70
2023-04-04T01:49:19.258Z,42.70
2023-04-04T01:51:53.686Z,42.70
2023-04-04T01:54:28.519Z,42.70
2023-04-04T01:57:03.231Z,42.50
2023-04-04T01:59:36.725Z,42.60
2023-04-04T02:02:10.048Z,42.60
2023-04-04T02:04:43.407Z,42.60
2023-04-04T02:07:16.969Z,42.50
2023-04-04T02:09:50.364Z,42.60
2023-04-04T02:12:25.082Z,42.50
2023-04-04T02:14:58.524Z,42.50
2023-04-04T02:17:32.534Z,42.50
2023-04-04T02:20:06.747Z,42.50
2023-04-04T02:22:40.063Z,42.50
2023-04-04T02:25:13.365Z,42.40
2023-04-04T02:27:48.046Z,42.30
2023-04-04T02:30:21.425Z,42.30
2023-04-04T02:32:59.705Z,42.40
2023-04-04T02:35:33.267Z,42.30
2023-04-04T02:38:06.678Z,42.30
2023-04-04T02:40:47.073Z,42.30
2023-04-04T02:43:22.349Z,42.20
2023-04-04T02:45:56.404Z,42.20
2023-04-04T02:48:31.624Z,42.20
2023-04-04T02:51:08.096Z,42.30
2023-04-04T02:53:41.497Z,42.20
2023-04-04T02:56:27.081Z,42.20
2023-04-04T02:59:02.183Z,42.20
2023-04-04T03:01:35.647Z,42.20
2023-04-04T03:04:11.158Z,42.20
2023-04-04T03:06:44.320Z,42.20
2023-04-04T03:09:17.785Z,42.50
2023-04-04T03:11:52.368Z,42.20
2023-04-04T03:14:27.062Z,42.20
2023-04-04T03:17:02.453Z,42.10
2023-04-04T03:19:36.099Z,42.10
2023-04-04T03:22:09.404Z,42.20
2023-04-04T03:24:42.738Z,42.00
2023-04-04T03:27:16.283Z,42.10
2023-04-04T03:29:51.027Z,42.10
2023-04-04T03:32:24.412Z,42.10
2023-04-04T03:34:57.783Z,42.60
2023-04-04T03:37:31.279Z,42.00
2023-04-04T03:40:05.136Z,42.00
2023-04-04T03:42:38.256Z,42.00
2023-04-04T03:45:17.227Z,42.40
2023-04-04T03:47:50.844Z,42.10
2023-04-04T03:50:24.856Z,42.10
2023-04-04T03:52:59.774Z,42.00
2023-04-04T03:55:34.695Z,42.00
2023-04-04T03:58:08.035Z,42.00
2023-04-04T04:00:42.750Z,42.00
2023-04-04T04:03:17.275Z,41.80
2023-04-04T04:05:53.582Z,41.80
2023-04-04T04:08:27.840Z,41.90
2023-04-04T04:11:05.581Z,41.90
2023-04-04T04:13:40.224Z,41.80
2023-04-04T04:16:15.558Z,41.90
2023-04-04T04:18:49.023Z,41.90
2023-04-04T04:21:29.744Z,41.90
2023-04-04T04:24:03.265Z,42.00
2023-04-04T04:26:36.599Z,42.10
2023-04-04T04:29:10.161Z,42.00
2023-04-04T04:31:45.068Z,41.90
2023-04-04T04:34:18.845Z,41.90
2023-04-04T04:36:53.867Z,41.90
2023-04-04T04:39:31.478Z,41.90
2023-04-04T04:42:24.343Z,41.90
2023-04-04T04:45:02.512Z,41.70
2023-04-04T04:47:41.053Z,41.60
2023-04-04T04:50:16.238Z,41.70
2023-04-04T04:52:52.473Z,41.60
2023-04-04T04:55:25.765Z,41.60
2023-04-04T04:58:10.835Z,42.20
2023-04-04T05:00:47.374Z,41.70
2023-04-04T05:03:22.181Z,41.70
2023-04-04T05:05:57.413Z,41.70
2023-04-04T05:08:30.927Z,41.60
2023-04-04T05:11:12.594Z,41.60
2023-04-04T05:13:46.347Z,41.60
2023-04-04T05:16:20.539Z,41.50
2023-04-04T05:18:57.991Z,42.10
2023-04-04T05:21:31.320Z,41.70
2023-04-04T05:24:06.765Z,41.60
2023-04-04T05:26:43.514Z,41.50
2023-04-04T05:29:17.044Z,41.50
2023-04-04T05:31:53.454Z,41.50
2023-04-04T05:34:30.428Z,41.40
2023-04-04T05:37:04.083Z,41.50
2023-04-04T05:39:39.525Z,41.50
2023-04-04T05:42:15.555Z,41.50
2023-04-04T05:44:54.193Z,41.70
2023-04-04T05:47:27.853Z,41.20
2023-04-04T05:50:02.872Z,41.50
2023-04-04T05:52:39.126Z,41.20
2023-04-04T05:55:16.836Z,41.30
2023-04-04T05:57:50.884Z,42.10
2023-04-04T06:00:31.056Z,41.90
2023-04-04T06:03:11.067Z,41.90
2023-04-04T06:05:46.085Z,42.00
2023-04-04T06:08:19.379Z,42.00
2023-04-04T06:10:52.562Z,42.00
2023-04-04T06:13:33.227Z,41.90
2023-04-04T06:16:12.451Z,41.90
2023-04-04T06:18:45.865Z,42.10
2023-04-04T06:21:20.555Z,41.90
2023-04-04T06:23:53.803Z,42.00
2023-04-04T06:26:27.670Z,41.90
2023-04-04T06:29:01.427Z,42.00
2023-04-04T06:31:38.190Z,41.90
2023-04-04T06:34:16.243Z,42.10
2023-04-04T06:36:59.745Z,42.20
2023-04-04T06:39:37.440Z,42.20
2023-04-04T06:42:15.195Z,42.50
2023-04-04T06:44:54.045Z,42.70
2023-04-04T06:47:27.229Z,42.80
2023-04-04T06:50:00.404Z,42.70
2023-04-04T06:52:35.013Z,42.50
2023-04-04T06:55:09.545Z,42.40
2023-04-04T06:57:42.729Z,42.40
2023-04-04T07:00:17.129Z,42.40
2023-04-04T07:02:50.556Z,42.50
2023-04-04T07:05:23.717Z,42.60
2023-04-04T07:07:58.264Z,42.70
2023-04-04T07:10:31.399Z,42.70
2023-04-04T07:13:04.613Z,42.70
2023-04-04T07:15:38.017Z,42.70
2023-04-04T07:18:11.302Z,42.80
2023-04-04T07:20:47.255Z,42.80
2023-04-04T07:23:21.764Z,42.80
2023-04-04T07:25:54.947Z,42.70
2023-04-04T07:28:28.145Z,42.70
2023-04-04T07:31:01.891Z,42.60
2023-04-04T07:33:34.904Z,42.60
2023-04-04T07:36:08.148Z,42.70
2023-04-04T07:38:42.824Z,42.60
2023-04-04T07:41:15.978Z,42.70
2023-04-04T07:43:49.153Z,42.80
2023-04-04T07:46:22.395Z,43.00
2023-04-04T07:48:55.686Z,43.10
2023-04-04T07:51:30.077Z,43.10
2023-04-04T07:54:04.650Z,43.10
2023-04-04T07:56:37.809Z,42.90
2023-04-04T07:59:11.152Z,42.20
2023-04-04T08:01:46.108Z,41.10
2023-04-04T08:04:19.757Z,39.90
2023-04-04T08:06:53.152Z,39.20
2023-04-04T08:09:31.359Z,39.30
2023-04-04T08:12:05.668Z,39.00
2023-04-04T08:14:38.852Z,38.80
2023-04-04T08:17:12.221Z,38.60
2023-04-04T08:19:45.776Z,38.40
2023-04-04T08:22:19.728Z,38.30
2023-04-04T08:24:54.733Z,38.10
2023-04-04T08:27:28.124Z,37.80
2023-04-04T08:30:03.794Z,37.70
2023-04-04T08:32:37.197Z,37.40
2023-04-04T08:35:11.754Z,37.80
2023-04-04T08:37:47.959Z,37.00
2023-04-04T08:40:22.606Z,36.90
2023-04-04T08:42:55.946Z,36.90
2023-04-04T08:45:31.571Z,36.90
2023-04-04T08:48:06.166Z,36.80
2023-04-04T08:50:41.804Z,36.80
2023-04-04T08:53:16.764Z,36.70
2023-04-04T08:55:52.207Z,36.60
2023-04-04T08:58:25.555Z,36.60
2023-04-04T09:00:58.887Z,36.90
2023-04-04T09:03:35.009Z,38.00
2023-04-04T09:06:09.297Z,37.50
2023-04-04T09:08:43.867Z,37.60
2023-04-04T09:11:20.491Z,37.90
2023-04-04T09:13:55.834Z,38.00
2023-04-04T09:16:29.119Z,38.50
2023-04-04T09:19:02.494Z,38.90
2023-04-04T09:21:35.930Z,39.10
2023-04-04T09:24:12.420Z,39.10
2023-04-04T09:26:52.162Z,38.90
2023-04-04T09:29:25.326Z,38.80
2023-04-04T09:31:58.615Z,38.30
2023-04-04T09:34:31.923Z,38.20
2023-04-04T09:37:06.503Z,37.70
2023-04-04T09:39:41.422Z,37.80
2023-04-04T09:42:16.859Z,37.60
2023-04-04T09:44:54.693Z,37.30
2023-04-04T09:47:31.731Z,37.10
2023-04-04T09:50:08.408Z,36.70
2023-04-04T09:52:44.354Z,36.80
2023-04-04T09:55:18.310Z,36.40
2023-04-04T09:57:53.274Z,36.10
2023-04-04T10:00:31.565Z,36.30
2023-04-04T10:03:06.314Z,36.40
2023-04-04T10:05:39.741Z,36.60
2023-04-04T10:08:19.814Z,36.50
2023-04-04T10:11:09.629Z,36.70
2023-04-04T10:13:46.783Z,36.60
2023-04-04T10:16:20.473Z,36.60
2023-04-04T10:18:54.327Z,36.80
2023-04-04T10:21:29.244Z,37.70
2023-04-04T10:24:09.263Z,37.10
2023-04-04T10:26:42.921Z,37.30
2023-04-04T10:29:18.571Z,37.40
2023-04-04T10:32:03.584Z,37.40
2023-04-04T10:34:44.232Z,37.50
2023-04-04T10:37:23.332Z,37.50
2023-04-04T10:40:06.368Z,37.60
2023-04-04T10:42:44.156Z,37.90
2023-04-04T10:45:22.034Z,37.50
2023-04-04T10:47:57.002Z,37.50
2023-04-04T10:50:31.954Z,37.50
2023-04-04T10:53:06.358Z,37.70
2023-04-04T10:55:42.140Z,37.80
2023-04-04T10:58:16.157Z,37.80
2023-04-04T11:00:55.368Z,37.90
2023-04-04T11:03:28.911Z,38.50
2023-04-04T11:06:03.368Z,38.10
2023-04-04T11:08:40.978Z,38.10
2023-04-04T11:11:22.666Z,37.70
2023-04-04T11:14:01.837Z,37.70
2023-04-04T11:16:48.097Z,37.80
2023-04-04T11:19:21.633Z,38.00
2023-04-04T11:21:55.510Z,37.70
2023-04-04T11:24:29.543Z,37.50
2023-04-04T11:27:02.950Z,37.50
2023-04-04T11:29:52.679Z,37.80
2023-04-04T11:32:35.467Z,37.80
2023-04-04T11:35:09.720Z,37.70
2023-04-04T11:38:00.512Z,38.00
2023-04-04T11:40:39.204Z,38.00
2023-04-04T11:43:13.425Z,38.00
2023-04-04T11:45:47.108Z,38.00
2023-04-04T11:48:23.709Z,37.60
2023-04-04T11:50:58.578Z,37.60
2023-04-04T11:53:34.200Z,38.30
2023-04-04T11:56:07.731Z,37.70
2023-04-04T11:58:41.786Z,37.70
2023-04-04T12:01:15.158Z,37.70
2023-04-04T12:03:52.053Z,37.90
2023-04-04T12:06:25.545Z,37.90
2023-04-04T12:09:00.153Z,38.00
2023-04-04T12:11:35.854Z,37.80
2023-04-04T12:14:16.937Z,37.90
2023-04-04T12:16:52.553Z,38.00
2023-04-04T12:19:31.690Z,37.90
2023-04-04T12:22:05.973Z,37.90
2023-04-04T12:24:39.514Z,37.80
2023-04-04T12:27:13.291Z,38.10
2023-04-04T12:29:47.613Z,38.10
2023-04-04T12:32:21.490Z,38.80
2023-04-04T12:35:01.997Z,38.20
2023-04-04T12:37:35.400Z,38.20
2023-04-04T12:40:11.822Z,38.10
2023-04-04T12:42:45.669Z,38.10
2023-04-04T12:45:22.603Z,38.10
2023-04-04T12:47:56.974Z,38.40
2023-04-04T12:50:32.552Z,38.30
2023-04-04T12:55:49.365Z,38.30
2023-04-04T12:58:25.594Z,38.40
2023-04-04T13:01:02.640Z,38.20
2023-04-04T13:03:38.106Z,38.20
2023-04-04T13:06:19.857Z,38.30
2023-04-04T13:08:56.658Z,38.30
2023-04-04T13:11:57.499Z,38.00
2023-04-04T13:14:57.562Z,38.10
2023-04-04T13:17:47.587Z,38.10
2023-04-04T13:20:22.138Z,38.90
2023-04-04T13:22:59.828Z,38.10
2023-04-04T13:25:34.104Z,38.10
2023-04-04T13:28:07.489Z,38.10
2023-04-04T13:30:46.761Z,38.00
2023-04-04T13:33:20.550Z,38.00
2023-04-04T13:35:54.140Z,38.10
2023-04-04T13:38:30.115Z,38.20
2023-04-04T13:41:04.172Z,38.10
2023-04-04T13:43:37.905Z,38.30
2023-04-04T13:46:11.859Z,38.60
2023-04-04T13:48:45.193Z,38.70
2023-04-04T13:51:18.475Z,38.70
2023-04-04T13:53:52.984Z,38.40
2023-04-04T13:56:26.287Z,38.40
2023-04-04T13:58:59.585Z,38.30
2023-04-04T14:01:33.067Z,38.50
2023-04-04T14:04:16.548Z,38.40
2023-04-04T14:07:04.951Z,38.50
2023-04-04T14:09:40.292Z,38.60
2023-04-04T14:12:21.503Z,38.30
2023-04-04T14:14:58.878Z,38.40
2023-04-04T14:17:32.306Z,38.40
2023-04-04T14:20:06.855Z,38.50
2023-04-04T14:22:40.250Z,38.40
2023-04-04T14:25:14.863Z,38.30
2023-04-04T14:27:49.345Z,38.50
2023-04-04T14:30:22.854Z,38.80
2023-04-04T14:32:57.367Z,39.60
2023-04-04T14:35:30.808Z,40.10
2023-04-04T14:38:04.133Z,40.30
2023-04-04T14:40:38.725Z,40.30
2023-04-04T14:43:11.963Z,40.50
2023-04-04T14:45:45.125Z,41.10
2023-04-04T14:48:18.313Z,41.30
2023-04-04T14:50:52.997Z,41.50
2023-04-04T14:53:26.578Z,41.20
2023-04-04T14:56:01.153Z,41.30
2023-04-04T14:58:34.585Z,41.60
2023-04-04T15:01:08.381Z,41.80
2023-04-04T15:03:41.444Z,41.60
2023-04-04T15:06:14.692Z,41.80
2023-04-04T15:08:48.096Z,41.60
2023-04-04T15:11:23.049Z,41.60
2023-04-04T15:13:56.344Z,41.70
2023-04-04T15:16:33.133Z,41.80
2023-04-04T15:19:06.599Z,41.80
2023-04-04T15:21:39.826Z,41.80
2023-04-04T15:24:13.122Z,41.90
2023-04-04T15:26:47.902Z,41.90
2023-04-04T15:29:21.146Z,41.90
2023-04-04T15:31:54.391Z,41.80
2023-04-04T15:34:27.709Z,41.80
2023-04-04T15:37:04.060Z,42.00
2023-04-04T15:39:49.756Z,41.90
2023-04-04T15:42:29.276Z,41.80
2023-04-04T15:45:04.585Z,41.60
2023-04-04T15:47:37.892Z,41.50
2023-04-04T15:50:11.900Z,41.40
2023-04-04T15:52:45.501Z,41.30
2023-04-04T15:55:20.708Z,41.30
2023-04-04T15:57:58.472Z,41.20
2023-04-04T16:00:33.992Z,41.10
2023-04-04T16:03:07.236Z,41.10
2023-04-04T16:05:40.504Z,41.10
2023-04-04T16:08:14.391Z,41.10
2023-04-04T16:10:47.547Z,41.00
2023-04-04T16:13:22.657Z,40.80
2023-04-04T16:15:57.055Z,40.80
2023-04-04T16:18:30.206Z,41.20
2023-04-04T16:21:04.137Z,40.60
2023-04-04T16:23:38.987Z,40.60
2023-04-04T16:26:12.174Z,40.60
2023-04-04T16:28:47.349Z,40.60
2023-04-04T16:31:20.655Z,40.60
2023-04-04T16:33:53.805Z,40.50
2023-04-04T16:36:27.160Z,40.60
2023-04-04T16:39:00.407Z,40.80
2023-04-04T16:41:34.184Z,40.90
2023-04-04T16:44:08.596Z,40.70
2023-04-04T16:46:41.690Z,40.90
2023-04-04T16:49:16.341Z,40.80
2023-04-04T16:51:49.552Z,40.70
2023-04-04T16:54:22.741Z,40.80
2023-04-04T16:56:56.563Z,40.80
2023-04-04T16:59:31.022Z,40.90
2023-04-04T17:02:05.316Z,41.00
2023-04-04T17:04:41.574Z,41.00
2023-04-04T17:07:15.113Z,40.80
2023-04-04T17:09:48.865Z,40.80
2023-04-04T17:12:22.245Z,40.80
2023-04-04T17:14:56.762Z,40.80
2023-04-04T17:17:30.081Z,40.70
2023-04-04T17:20:03.572Z,40.60
2023-04-04T17:22:37.522Z,40.60
2023-04-04T17:25:11.423Z,40.60
2023-04-04T17:27:44.581Z,40.50
2023-04-04T17:30:19.217Z,40.50
2023-04-04T17:32:54.475Z,40.60
2023-04-04T17:35:27.786Z,40.80
2023-04-04T17:38:00.927Z,40.80
2023-04-04T17:40:36.327Z,40.90
2023-04-04T17:43:09.532Z,41.00
2023-04-04T17:45:45.570Z,41.20
2023-04-04T17:48:18.724Z,40.80
2023-04-04T17:50:52.719Z,40.50
2023-04-04T17:53:27.410Z,40.40
2023-04-04T17:56:03.316Z,40.10
2023-04-04T17:58:46.283Z,39.60
2023-04-04T18:01:22.936Z,39.60
2023-04-04T18:03:58.038Z,39.60
2023-04-04T18:06:31.652Z,39.50
2023-04-04T18:09:05.338Z,39.20
2023-04-04T18:11:39.547Z,39.00
2023-04-04T18:14:12.747Z,39.40
2023-04-04T18:16:48.150Z,39.90
2023-04-04T18:19:21.373Z,40.00
2023-04-04T18:21:59.703Z,40.50
2023-04-04T18:24:32.993Z,40.60
2023-04-04T18:27:06.383Z,40.70
2023-04-04T18:29:40.519Z,40.70
2023-04-04T18:32:15.046Z,40.70
2023-04-04T18:34:48.435Z,40.90
2023-04-04T18:37:23.255Z,41.00
2023-04-04T18:39:57.710Z,41.20
2023-04-04T18:42:31.116Z,41.00
2023-04-04T18:45:04.836Z,40.90
2023-04-04T18:47:39.325Z,40.90
2023-04-04T18:50:12.469Z,40.90
2023-04-04T18:52:45.605Z,41.00
2023-04-04T18:55:18.805Z,41.00
2023-04-04T18:57:52.077Z,41.10
2023-04-04T19:00:25.478Z,41.00
2023-04-04T19:03:00.031Z,41.00
2023-04-04T19:05:34.845Z,41.00
2023-04-04T19:08:09.369Z,41.60
2023-04-04T19:10:45.863Z,41.70
2023-04-04T19:13:19.294Z,41.70
2023-04-04T19:15:52.504Z,41.80
2023-04-04T19:18:27.452Z,42.10
2023-04-04T19:21:00.797Z,42.30
2023-04-04T19:23:34.063Z,42.40
2023-04-04T19:26:07.641Z,42.70
2023-04-04T19:28:41.621Z,43.30
2023-04-04T19:31:21.648Z,42.70
2023-04-04T19:33:56.803Z,42.70
2023-04-04T19:36:36.895Z,42.70
2023-04-04T19:39:10.830Z,42.70
2023-04-04T19:41:44.323Z,42.80
2023-04-04T19:44:20.591Z,42.90
2023-04-04T19:46:55.003Z,42.90
2023-04-04T19:49:30.620Z,43.50
2023-04-04T19:52:05.528Z,43.50
2023-04-04T19:54:42.134Z,43.50
2023-04-04T19:57:19.603Z,43.50
2023-04-04T20:00:05.158Z,43.50
2023-04-04T20:02:53.296Z,43.60
2023-04-04T20:06:02.616Z,43.80
2023-04-04T20:08:41.185Z,44.00
2023-04-04T20:11:14.717Z,44.00
2023-04-04T20:13:48.112Z,43.80
2023-04-04T20:16:22.278Z,43.90
2023-04-04T20:19:01.919Z,43.80
2023-04-04T20:21:36.819Z,43.70
2023-04-04T20:24:10.762Z,43.70
2023-04-04T20:26:51.195Z,43.60
2023-04-04T20:29:27.144Z,44.40
2023-04-04T20:32:02.071Z,43.60
2023-04-04T20:34:41.861Z,43.50
2023-04-04T20:37:20.063Z,43.60
2023-04-04T20:39:58.740Z,43.60
2023-04-04T20:42:40.533Z,43.60
2023-04-04T20:45:51.063Z,43.70
2023-04-04T20:48:43.139Z,43.90
2023-04-04T20:51:36.154Z,43.50
2023-04-04T20:54:18.345Z,43.50
2023-04-04T20:57:00.263Z,43.60
2023-04-04T20:59:49.130Z,43.60
2023-04-04T21:02:24.035Z,43.70
2023-04-04T21:04:59.831Z,43.70
2023-04-04T21:07:39.897Z,43.60
2023-04-04T21:10:25.597Z,43.60
2023-04-04T21:13:00.793Z,43.80
2023-04-04T21:15:34.446Z,44.30
2023-04-04T21:18:10.533Z,43.70
2023-04-04T21:21:07.444Z,43.60
2023-04-04T21:23:54.301Z,43.10
2023-04-04T21:26:31.954Z,42.90
2023-04-04T21:29:07.179Z,43.20
2023-04-04T21:31:43.094Z,43.20
2023-04-04T21:34:18.460Z,43.20
2023-04-04T21:36:55.287Z,43.20
2023-04-04T21:39:30.075Z,43.10
2023-04-04T21:42:08.559Z,43.10
2023-04-04T21:44:42.263Z,43.30
2023-04-04T21:47:15.858Z,43.30
2023-04-04T21:49:49.068Z,43.20
2023-04-04T21:52:22.296Z,43.10
2023-04-04T21:54:55.689Z,43.10
2023-04-04T21:57:30.201Z,43.00
2023-04-04T22:00:03.803Z,42.80
2023-04-04T22:02:38.192Z,42.80
2023-04-04T22:05:11.576Z,42.80
2023-04-04T22:07:44.818Z,42.70
2023-04-04T22:10:19.069Z,42.70
2023-04-04T22:12:54.869Z,42.70
2023-04-04T22:15:29.723Z,42.60
2023-04-04T22:18:05.153Z,42.60
2023-04-04T22:20:39.220Z,42.60
2023-04-04T22:23:13.978Z,42.60
2023-04-04T22:25:47.214Z,42.60
2023-04-04T22:28:24.913Z,42.60
2023-04-04T22:30:58.236Z,42.60
2023-04-04T22:33:34.052Z,42.80
2023-04-04T22:36:10.073Z,43.00
2023-04-04T22:38:43.516Z,43.20
2023-04-04T22:41:16.709Z,43.00
2023-04-04T22:43:51.204Z,42.80
2023-04-04T22:46:25.633Z,42.70
2023-04-04T22:49:06.407Z,43.10
2023-04-04T22:51:45.396Z,43.00
2023-04-04T22:54:19.177Z,42.90
2023-04-04T22:56:52.311Z,42.70
2023-04-04T22:59:26.924Z,42.60
2023-04-04T23:02:00.117Z,42.50
2023-04-04T23:04:33.600Z,42.70
2023-04-04T23:07:06.931Z,42.70
2023-04-04T23:09:40.139Z,42.70
2023-04-04T23:12:13.394Z,42.50
2023-04-04T23:14:49.520Z,42.40
2023-04-04T23:17:23.811Z,42.40
2023-04-04T23:19:57.150Z,42.60
2023-04-04T23:22:30.480Z,42.80
2023-04-04T23:25:03.743Z,42.70
2023-04-04T23:27:36.948Z,42.80
2023-04-04T23:30:12.404Z,42.80
2023-04-04T23:32:45.578Z,42.70
2023-04-04T23:35:18.790Z,42.80
2023-04-04T23:37:51.945Z,42.70
2023-04-04T23:40:25.187Z,42.60
2023-04-04T23:42:58.506Z,42.60
2023-04-04T23:45:37.221Z,42.60
2023-04-04T23:48:10.782Z,42.60
2023-04-04T23:50:44.324Z,42.70
2023-04-04T23:53:17.590Z,42.70
2023-04-04T23:55:51.779Z,42.70
2023-04-04T23:58:26.339Z,42.80
